ADDS TAF Board (Experimental) INFO Settings
IDs: Format: Expanded Condensed

KPHX - Phoenix/Sky Harbor, AZ, US

Issued at 0836 UTC 29 Jun 2016
Updated at: 0903 UTC 29 Jun 2016
Time0851Z 29/10Z 29/11Z 29/12Z 29/13Z 29/14Z 29/15Z 29/16Z 29/17Z 29/18Z 29/19Z 29/20Z 29/21Z 29/22Z
Type OBS PRVL PRVL PRVL PRVL PRVL PRVL PRVL PRVL PRVL PRVL PRVL PRVL PRVL
VIS 10 >6 >6 >6 >6 >6 >6 >6 >6 >6 >6 >6 >6 >6
CIG 160 150 150 150 150 200 200 200 200 200 200 200 200 --
Cover BKN BKN BKN BKN BKN BKN BKN BKN BKN BKN BKN BKN BKN SCT
FltCat VFR VFR VFR VFR VFR VFR VFR VFR VFR VFR VFR VFR VFR VFR
WX -- VCSH VCSH VCSH VCSH -- -- -- -- -- -- -- -- --
WDir 110 120 120 120 120 110 110 110 110 110 110 110 110 230
WSpd 16 12 12 12 12 11 11 11 11 11 11 11 11 7
WGst 22 16 16 16 16 -- -- -- -- -- -- -- -- --
R07/25
XWnd -5 -6 -6 -6 -6 -4 -4 -4 -4 -4 -4 -4 -4 -4
XGst -8 -8 -8 -8 -8 -- -- -- -- -- -- -- -- --
HWnd 15 10 10 10 10 10 10 10 10 10 10 10 10 -5
HGst 21 14 14 14 14 -- -- -- -- -- -- -- -- --
R08/26
XWnd -5 -6 -6 -6 -6 -4 -4 -4 -4 -4 -4 -4 -4 -4
XGst -8 -8 -8 -8 -8 -- -- -- -- -- -- -- -- --
HWnd 15 10 10 10 10 10 10 10 10 10 10 10 10 -5
HGst 21 14 14 14 14 -- -- -- -- -- -- -- -- --

NOTE: TEMPO conditions in [brackets]. Keep in mind TEMPO conditions might be better (lower impact) than prevailing conditions.

Raw TAF
KPHX 290836Z 2909/3006 12012G16KT P6SM VCSH BKN150 BKN200
  FM291400 11011KT P6SM SCT150 BKN200
  FM292200 23007KT P6SM SCT100 SCT200
  FM300200 10013G24KT P6SM VCTS BKN080CB OVC120
  FM300500 20009KT P6SM BKN120 OVC200


Raw METAR
KPHX 290851Z 11016G22KT 10SM BKN160 BKN180 34/16 A2984 RMK AO2 SLP081 60000 T03390156 51017
KPHX 290751Z 13015G23KT 10SM BKN150 BKN200 34/15 A2984 RMK AO2 PK WND 14027/0714 WSHFT 0640 SLP080 T03440150
KPHX 290700Z 14014G22KT 10SM BKN170 BKN200 37/14 A2982 RMK AO2 WSHFT 0640 T03720139
KPHX 290651Z 13011KT 10SM BKN170 BKN200 38/14 A2982 RMK AO2 RAB08E18 SLP072 P0000 T03780139 404500317

METAR Board
Radar Display
Forecast Discussion

TAF Board Legend

Potential Impact
Threat None Slight Moderate High
Visibility (sm) ≥5.1 5.1>X≥3 3>X≥1 <1
Ceiling (100 ft) ≥30.1 30.1>X≥10 10>X≥5 <5
Wind Speed (kt) <10 10≤X<20 20≤X<30 ≥30
Wind Gust (kt) <15 15≤X<25 25≤X<35 ≥35
Weather No Wx Reported VCTS,-TS,-FZRA,SN TS,FZRA +TS,+FZRA,+SN